KRAP/RAP METAR and TAF weather

Enter ICAO airport designator
Station Type Date Time Source
KRAP METAR 2020/07/10 22:40 UTC NOAA

KRAP 102240Z 08013KT 10SM TS CLR 26/16 A2992 RMK AO2 LTG DSNT W-NE TSB34 TS W MOV E T02610156


Station Type Date Time Source
KRAP Decoded METAR 2020/07/10 22:40 UTC NOAA

RAPID CITY REGIONAL AIRPORT , SD, United States (KRAP) 44-03N 103-03W 965M
Jul 10, 2020 - 06:40 PM EDT / 2020.07.10 2240 UTC
Wind: from the E (080 degrees) at 15 MPH (13 KT):0
Visibility: 10 mile(s):0
Sky conditions: clear
Weather: thunder; Lightning observed
Temperature: 79.0 F (26.1 C)
Dew Point: 60.1 F (15.6 C)
Relative Humidity: 52%
Pressure (altimeter): 29.92 in. Hg (1013 hPa)
ob: KRAP 102240Z 08013KT 10SM TS CLR 26/16 A2992 RMK AO2 LTG DSNT W-NE TSB34 TS W MOV E T02610156
cycle: 22

Station Type Date Time Source
KRAP TAF 2020/07/10 21:27 UTC NOAA

TAF
AMD KRAP 102125Z 1021/1118 12013G23KT P6SM FEW150
TEMPO 1022/1024 VRB25G40KT TSRAGS OVC050CB
FM110000 36018G28KT P6SM BKN040 OVC120
FM111400 31012KT P6SM SKC

Example: see airport list